Legend Of The Seas — C6SL5 — position and weather

sailwx.info

Track history (hours):
 
Tides and Currents Weather Stations Pressure Air Temp Water Temp Dewpoint Dewpoint Depression Visibility Wind Speed Wind Dir Waves Ship Positions

Legend Of The Seas

Operator: Royal Caribbean Cruises Ltd

Last reported at 2014-Oct-19 21:30 UTC. Time now 2014-Oct-22 12:09 UTC.
Position N 44°23' W 063°04'.

Type: Passenger vessel. MMSI: 311378000.

Date/timePositionNaut miles runAvg speedWind from/ knotsBaromVisibWave heightAir tempDewpointWater temp
2014-Oct-19 21:30N 44°23' W 063°04'1414.6
2014-Oct-19 20:33N 44°25' W 063°23'1212.3
2014-Oct-19 19:33N 44°35' W 063°32'3 2.9
2014-Oct-19 18:27N 44°38' W 063°34'0 0.0
2014-Oct-19 17:27N 44°38' W 063°34'0 0.0
2014-Oct-19 16:30N 44°38' W 063°34'0 0.0
2014-Oct-19 15:30N 44°38' W 063°34'0 0.0
2014-Oct-19 14:33N 44°38' W 063°34'0 0.0
2014-Oct-19 13:33N 44°38' W 063°34'0 0.0
2014-Oct-19 12:33N 44°38' W 063°34'0 0.0
2014-Oct-19 11:33N 44°38' W 063°34'0 0.0
2014-Oct-19 10:07N 44°38' W 063°34'1 2.5
2014-Oct-19 09:33N 44°37' W 063°33'1111.2
2014-Oct-19 08:32N 44°28' W 063°24'48713.9
2014-Oct-17 21:33N 47°05' W 052°23'1413.5
2014-Oct-17 20:33N 47°19' W 052°23'1514.8
2014-Oct-17 19:32N 47°32' W 052°34'6 6.0
2014-Oct-17 18:31N 47°34' W 052°42'0 0.1
2014-Oct-17 17:33N 47°34' W 052°42'0 0.0
2014-Oct-17 16:30N 47°34' W 052°42'0 0.0
2014-Oct-17 15:33N 47°34' W 052°42'0 0.0
2014-Oct-17 14:33N 47°34' W 052°42'0 0.0
2014-Oct-17 13:33N 47°34' W 052°42'0 0.0
2014-Oct-17 12:33N 47°34' W 052°42'0 0.0
2014-Oct-17 11:27N 47°34' W 052°42'0 0.0
2014-Oct-17 10:30N 47°34' W 052°42'0 0.0
2014-Oct-17 09:30N 47°34' W 052°42'4 3.9
2014-Oct-17 08:32N 47°34' W 052°37'1514.5
2014-Oct-17 07:32N 47°21' W 052°25'1514.9
2014-Oct-17 06:31N 47°06' W 052°23'  
Track history (hours):
 
Tides and Currents Weather Stations Pressure Air Temp Water Temp Dewpoint Dewpoint Depression Visibility Wind Speed Wind Dir Waves Ship Positions

Legend Of The Seas

Operator: Royal Caribbean Cruises Ltd

Last reported at 2014-Oct-19 21:30 UTC. Time now 2014-Oct-22 12:09 UTC.
Position N 44°23' W 063°04'.

Type: Passenger vessel. MMSI: 311378000.

Date/timePositionNaut miles runAvg speedWind from/ knotsBaromVisibWave heightAir tempDewpointWater temp
2014-Oct-19 21:30N 44°23' W 063°04'1414.6
2014-Oct-19 20:33N 44°25' W 063°23'1212.3
2014-Oct-19 19:33N 44°35' W 063°32'3 2.9
2014-Oct-19 18:27N 44°38' W 063°34'0 0.0
2014-Oct-19 17:27N 44°38' W 063°34'0 0.0
2014-Oct-19 16:30N 44°38' W 063°34'0 0.0
2014-Oct-19 15:30N 44°38' W 063°34'0 0.0
2014-Oct-19 14:33N 44°38' W 063°34'0 0.0
2014-Oct-19 13:33N 44°38' W 063°34'0 0.0
2014-Oct-19 12:33N 44°38' W 063°34'0 0.0
2014-Oct-19 11:33N 44°38' W 063°34'0 0.0
2014-Oct-19 10:07N 44°38' W 063°34'1 2.5
2014-Oct-19 09:33N 44°37' W 063°33'1111.2
2014-Oct-19 08:32N 44°28' W 063°24'48713.9
2014-Oct-17 21:33N 47°05' W 052°23'1413.5
2014-Oct-17 20:33N 47°19' W 052°23'1514.8
2014-Oct-17 19:32N 47°32' W 052°34'6 6.0
2014-Oct-17 18:31N 47°34' W 052°42'0 0.1
2014-Oct-17 17:33N 47°34' W 052°42'0 0.0
2014-Oct-17 16:30N 47°34' W 052°42'0 0.0
2014-Oct-17 15:33N 47°34' W 052°42'0 0.0
2014-Oct-17 14:33N 47°34' W 052°42'0 0.0
2014-Oct-17 13:33N 47°34' W 052°42'0 0.0
2014-Oct-17 12:33N 47°34' W 052°42'0 0.0
2014-Oct-17 11:27N 47°34' W 052°42'0 0.0
2014-Oct-17 10:30N 47°34' W 052°42'0 0.0
2014-Oct-17 09:30N 47°34' W 052°42'4 3.9
2014-Oct-17 08:32N 47°34' W 052°37'1514.5
2014-Oct-17 07:32N 47°21' W 052°25'1514.9
2014-Oct-17 06:31N 47°06' W 052°23'  

Dump ship's entire track history